Time;durP1;ratioP1;P1;durP2;ratioP2;P2;SDS_P1;SDS_P2;PMS_P1;PMS_P2;Temp;Humidity;BMP_temperature;BMP_pressure;BME280_temperature;BME280_humidity;BME280_pressure;Samples;Min_cycle;Max_cycle;Signal;HPM_P1;HPM_P2
2022/01/06 00:01:06;;;;;;;5.30;2.97;;;;;;;3.57;65.91;100499.72;5060380;28;20323;-62
2022/01/06 00:03:32;;;;;;;3.83;3.40;;;;;;;3.36;65.60;100503.31;5061621;28;20169;-62
2022/01/06 00:06:01;;;;;;;6.63;2.93;;;;;;;3.56;65.08;100503.13;5062330;28;20601;-62
2022/01/06 00:08:26;;;;;;;6.60;3.20;;;;;;;3.33;65.50;100508.38;5060670;28;20173;-61
2022/01/06 00:10:52;;;;;;;8.77;4.13;;;;;;;3.35;66.43;100511.84;5059683;28;20464;-61
2022/01/06 00:13:25;;;;;;;4.03;3.23;;;;;;;3.20;66.19;100519.91;5060648;28;20189;-61
2022/01/06 00:18:33;;;;;;;3.40;3.10;;;;;;;3.17;66.80;100526.69;5060353;28;20412;-62
2022/01/06 00:23:43;;;;;;;8.53;3.57;;;;;;;3.19;66.59;100546.53;5060096;28;20465;-62
2022/01/06 00:26:09;;;;;;;8.30;2.90;;;;;;;3.36;66.40;100552.25;5064115;28;20416;-65
2022/01/06 00:28:37;;;;;;;5.40;3.00;;;;;;;3.29;66.63;100557.13;5063874;28;20198;-63
2022/01/06 00:31:03;;;;;;;3.80;3.00;;;;;;;3.22;66.73;100565.47;5061424;28;20237;-62
2022/01/06 00:33:30;;;;;;;4.80;2.60;;;;;;;3.18;66.51;100560.22;5059715;28;20439;-62
2022/01/06 00:35:55;;;;;;;5.43;3.50;;;;;;;3.29;66.40;100562.28;5059224;28;20536;-61
2022/01/06 00:38:22;;;;;;;5.90;3.63;;;;;;;2.91;67.90;100565.22;5060542;28;20411;-61
2022/01/06 00:40:47;;;;;;;5.33;3.30;;;;;;;3.13;66.82;100566.03;5059942;28;20572;-61
2022/01/06 00:43:13;;;;;;;6.30;3.50;;;;;;;3.10;67.43;100573.63;5059864;28;20464;-61
2022/01/06 00:45:38;;;;;;;3.53;3.00;;;;;;;3.14;66.48;100575.47;5059254;28;20248;-62
2022/01/06 00:48:07;;;;;;;3.63;3.33;;;;;;;3.27;66.81;100588.00;5059813;28;20248;-61
2022/01/06 00:50:34;;;;;;;4.77;3.10;;;;;;;3.28;65.61;100582.03;5059760;28;20284;-62
2022/01/06 00:53:03;;;;;;;3.43;3.00;;;;;;;2.99;67.30;100588.66;5059829;28;20720;-62
2022/01/06 00:55:29;;;;;;;3.90;3.10;;;;;;;3.15;66.98;100591.03;5059843;28;20798;-61
2022/01/06 00:57:55;;;;;;;5.10;2.90;;;;;;;3.33;66.78;100593.38;5059484;28;20470;-62
2022/01/06 01:00:21;;;;;;;4.77;2.87;;;;;;;3.23;67.00;100593.00;5059660;28;20463;-60
2022/01/06 01:02:46;;;;;;;7.50;4.20;;;;;;;2.96;67.88;100597.16;5059432;28;20439;-62
2022/01/06 01:05:11;;;;;;;4.10;2.97;;;;;;;2.96;66.71;100598.84;5060096;28;20455;-61
2022/01/06 01:07:36;;;;;;;4.43;3.60;;;;;;;3.14;68.08;100601.25;5059465;28;20170;-61
2022/01/06 01:10:03;;;;;;;9.93;3.03;;;;;;;2.99;67.27;100605.00;5059341;28;20197;-60
2022/01/06 01:12:28;;;;;;;7.30;3.20;;;;;;;2.99;67.67;100606.69;5059956;28;20165;-61
2022/01/06 01:14:58;;;;;;;3.37;3.07;;;;;;;3.01;67.09;100612.78;5060713;28;20896;-65
2022/01/06 01:17:27;;;;;;;6.50;3.00;;;;;;;2.79;67.60;100622.25;5060967;28;20170;-62
2022/01/06 01:19:53;;;;;;;4.60;2.87;;;;;;;3.35;65.75;100630.38;5060588;28;20411;-61
2022/01/06 01:22:18;;;;;;;8.67;4.40;;;;;;;3.21;66.98;100636.75;5059327;28;20798;-61
2022/01/06 01:24:43;;;;;;;4.57;3.30;;;;;;;3.21;66.65;100629.00;5059229;28;20809;-61
2022/01/06 01:27:09;;;;;;;4.83;3.33;;;;;;;3.13;67.13;100651.03;5059677;28;20166;-61
2022/01/06 01:29:44;;;;;;;4.10;3.20;;;;;;;3.05;66.30;100653.31;5059030;28;20173;-62
2022/01/06 01:32:09;;;;;;;4.30;2.90;;;;;;;3.31;65.62;100662.00;5058454;28;20165;-62
2022/01/06 01:34:34;;;;;;;4.20;3.27;;;;;;;3.17;66.16;100665.78;5060088;28;20471;-61
2022/01/06 01:37:00;;;;;;;5.67;3.03;;;;;;;3.17;65.67;100661.50;5058814;28;20173;-61
2022/01/06 01:39:25;;;;;;;4.30;2.93;;;;;;;3.17;66.28;100665.78;5058882;28;20250;-61
2022/01/06 01:41:51;;;;;;;5.57;2.77;;;;;;;3.11;67.07;100679.31;5059092;28;20174;-62
2022/01/06 01:44:19;;;;;;;6.63;3.13;;;;;;;3.13;67.11;100684.50;5058610;28;20173;-62
2022/01/06 01:46:57;;;;;;;3.00;2.70;;;;;;;3.23;65.63;100678.88;5058656;28;20208;-62
2022/01/06 01:51:48;;;;;;;6.53;2.90;;;;;;;3.10;66.65;100694.69;5058427;28;20474;-60
2022/01/06 01:54:13;;;;;;;6.70;2.77;;;;;;;3.07;65.67;100692.84;5058342;28;20217;-62
2022/01/06 01:56:38;;;;;;;8.30;3.57;;;;;;;3.34;66.09;100695.66;5058381;28;20220;-61
2022/01/06 01:59:04;;;;;;;5.17;2.77;;;;;;;3.08;65.99;100707.50;5058798;28;20178;-61
2022/01/06 02:01:30;;;;;;;8.00;3.30;;;;;;;3.13;66.20;100699.97;5058526;28;20170;-62
2022/01/06 02:03:55;;;;;;;4.80;2.97;;;;;;;3.10;65.43;100705.88;5058313;28;20836;-62
2022/01/06 02:06:21;;;;;;;4.70;2.30;;;;;;;3.07;65.78;100710.03;5058785;28;20200;-61
2022/01/06 02:08:46;;;;;;;7.53;2.77;;;;;;;3.05;66.17;100709.97;5058453;28;20189;-62
2022/01/06 02:11:12;;;;;;;3.23;2.80;;;;;;;3.26;65.24;100716.75;5058321;28;20578;-61
2022/01/06 02:13:48;;;;;;;5.57;3.40;;;;;;;3.27;65.98;100711.66;5058591;28;20186;-61
2022/01/06 02:16:13;;;;;;;4.37;3.23;;;;;;;2.86;67.04;100700.63;5057575;28;20165;-61
2022/01/06 02:18:39;;;;;;;6.37;3.47;;;;;;;2.92;67.09;100710.28;5058227;28;20442;-60
2022/01/06 02:21:04;;;;;;;4.53;2.47;;;;;;;2.78;67.00;100708.03;5058206;28;20185;-61
2022/01/06 02:23:29;;;;;;;6.33;3.10;;;;;;;2.87;67.00;100710.13;5058271;28;20457;-62
2022/01/06 02:25:55;;;;;;;5.40;3.80;;;;;;;2.69;67.24;100711.13;5058786;28;20166;-61
2022/01/06 02:28:22;;;;;;;16.90;4.83;;;;;;;2.81;67.64;100708.16;5058240;28;20227;-60
2022/01/06 02:30:51;;;;;;;5.40;3.47;;;;;;;2.66;68.61;100713.53;5058099;28;20216;-61
2022/01/06 02:33:16;;;;;;;4.57;3.00;;;;;;;2.45;69.24;100712.66;5058649;28;20836;-61
2022/01/06 02:35:42;;;;;;;3.67;3.10;;;;;;;2.74;67.46;100715.56;5058204;28;20411;-62
2022/01/06 02:38:09;;;;;;;6.30;3.37;;;;;;;2.43;68.89;100716.88;5058267;28;20169;-61
2022/01/06 02:40:34;;;;;;;5.87;3.67;;;;;;;2.27;68.87;100713.63;5058476;28;20187;-60
2022/01/06 02:43:02;;;;;;;4.77;3.43;;;;;;;2.67;67.91;100715.31;5057834;28;20408;-62
2022/01/06 02:45:29;;;;;;;6.03;3.77;;;;;;;2.75;67.53;100718.22;5058039;28;20162;-62
2022/01/06 02:47:55;;;;;;;9.63;3.90;;;;;;;2.62;67.78;100726.25;5058407;28;20405;-62
2022/01/06 02:50:21;;;;;;;8.47;3.40;;;;;;;2.72;67.61;100724.91;5057842;28;20651;-61
2022/01/06 02:52:46;;;;;;;6.00;3.57;;;;;;;2.51;68.08;100734.38;5057783;28;20480;-62
2022/01/06 02:55:13;;;;;;;6.37;3.83;;;;;;;2.78;68.14;100738.06;5058127;28;20459;-62
2022/01/06 02:57:39;;;;;;;3.73;2.83;;;;;;;2.72;67.77;100741.25;5057202;28;20188;-62
2022/01/06 03:00:07;;;;;;;10.00;5.60;;;;;;;2.70;68.71;100751.47;5057634;28;20813;-60
2022/01/06 03:02:32;;;;;;;3.90;2.97;;;;;;;2.97;66.94;100745.69;5057440;28;20416;-62
2022/01/06 03:04:57;;;;;;;5.53;3.40;;;;;;;2.63;67.29;100757.19;5058231;28;20428;-62
2022/01/06 03:07:22;;;;;;;3.60;2.53;;;;;;;2.53;68.47;100757.63;5060089;28;20185;-60
2022/01/06 03:09:54;;;;;;;5.70;3.03;;;;;;;2.61;67.75;100755.34;5061026;28;20208;-62
2022/01/06 03:12:25;;;;;;;2.93;2.70;;;;;;;2.81;67.66;100751.03;5061584;28;20549;-62
2022/01/06 03:14:50;;;;;;;4.63;3.00;;;;;;;2.69;67.23;100753.97;5061832;28;20460;-61
2022/01/06 03:17:16;;;;;;;6.13;3.13;;;;;;;2.62;66.99;100757.13;5061680;28;20435;-61
2022/01/06 03:19:42;;;;;;;6.07;3.30;;;;;;;2.43;68.16;100766.63;5061425;28;20205;-61
2022/01/06 03:22:07;;;;;;;4.20;2.73;;;;;;;2.33;68.43;100769.63;5061812;28;20192;-61
2022/01/06 03:24:32;;;;;;;5.83;3.57;;;;;;;2.68;67.63;100768.56;5061337;28;20424;-61
2022/01/06 03:26:58;;;;;;;7.77;3.37;;;;;;;2.81;67.81;100769.06;5061381;28;20184;-62
2022/01/06 03:29:23;;;;;;;20.90;10.13;;;;;;;2.67;68.36;100771.94;5061732;28;20558;-64
2022/01/06 03:31:48;;;;;;;37.20;18.07;;;;;;;2.91;69.83;100776.38;5062192;28;20503;-62
2022/01/06 03:34:14;;;;;;;13.20;5.00;;;;;;;2.67;68.40;100779.66;5062181;28;20177;-61
2022/01/06 03:36:39;;;;;;;4.63;4.00;;;;;;;2.64;68.65;100797.56;5062197;28;20186;-60
2022/01/06 03:39:05;;;;;;;6.20;3.90;;;;;;;2.93;67.68;100797.91;5061777;28;20185;-60
2022/01/06 03:41:30;;;;;;;10.17;4.03;;;;;;;2.79;67.14;100812.78;5061759;28;20182;-61
2022/01/06 03:43:56;;;;;;;8.23;4.13;;;;;;;2.89;67.61;100816.59;5062345;28;20169;-61
2022/01/06 03:46:21;;;;;;;10.10;4.20;;;;;;;3.07;67.47;100813.03;5061493;28;20550;-60
2022/01/06 03:48:46;;;;;;;5.43;4.07;;;;;;;2.98;66.50;100818.72;5061224;28;20169;-61
2022/01/06 03:51:12;;;;;;;7.73;3.70;;;;;;;2.54;68.42;100821.13;5061330;28;20193;-60
2022/01/06 03:53:38;;;;;;;7.17;4.23;;;;;;;2.79;68.59;100825.66;5060954;28;20247;-61
2022/01/06 03:56:03;;;;;;;5.40;3.43;;;;;;;2.92;66.39;100833.88;5061745;28;20177;-62
2022/01/06 03:58:29;;;;;;;5.33;4.17;;;;;;;2.87;67.76;100833.72;5061729;28;20219;-62
2022/01/06 04:00:54;;;;;;;4.40;3.23;;;;;;;2.96;66.11;100828.91;5060881;28;20429;-62
2022/01/06 04:03:19;;;;;;;5.47;3.90;;;;;;;3.07;66.96;100829.38;5060654;28;20554;-60
2022/01/06 04:05:45;;;;;;;3.90;3.17;;;;;;;2.95;67.92;100844.31;5060988;28;20170;-61
2022/01/06 04:08:10;;;;;;;3.63;3.30;;;;;;;2.65;67.06;100849.91;5059842;28;20182;-61
2022/01/06 04:10:35;;;;;;;4.87;3.10;;;;;;;2.69;67.54;100842.41;5060431;28;20205;-61
2022/01/06 04:13:01;;;;;;;3.80;3.20;;;;;;;3.06;67.30;100840.50;5060796;28;20204;-61
2022/01/06 04:15:27;;;;;;;4.80;2.77;;;;;;;2.90;67.20;100849.28;5060342;28;20174;-61
2022/01/06 04:17:52;;;;;;;9.10;3.60;;;;;;;2.98;68.39;100847.91;5059829;28;20170;-61
2022/01/06 04:20:18;;;;;;;3.80;2.90;;;;;;;2.81;68.42;100857.47;5060032;28;20208;-60
2022/01/06 04:22:44;;;;;;;5.30;3.03;;;;;;;2.94;67.68;100876.91;5059668;28;20219;-61
2022/01/06 04:25:09;;;;;;;6.23;3.03;;;;;;;2.79;68.81;100872.00;5060266;28;20181;-60
2022/01/06 04:27:35;;;;;;;3.20;2.90;;;;;;;2.68;69.01;100886.09;5060616;28;20499;-61
2022/01/06 04:30:01;;;;;;;5.57;4.17;;;;;;;2.63;69.77;100893.59;5059961;28;20225;-61
2022/01/06 04:32:27;;;;;;;15.30;3.60;;;;;;;2.73;69.92;100904.31;5059907;28;20436;-61
2022/01/06 04:34:52;;;;;;;5.97;3.20;;;;;;;2.75;69.03;100900.09;5060381;28;20656;-62
2022/01/06 04:37:17;;;;;;;10.77;3.90;;;;;;;2.85;69.48;100899.69;5059938;28;20181;-60
2022/01/06 04:39:43;;;;;;;3.77;3.23;;;;;;;2.77;69.43;100903.63;5059874;28;20200;-62
2022/01/06 04:42:08;;;;;;;13.83;4.27;;;;;;;2.78;69.76;100898.53;5060434;28;20162;-60
2022/01/06 04:44:33;;;;;;;7.10;4.03;;;;;;;2.59;70.18;100902.00;5059630;28;20188;-61
2022/01/06 04:47:00;;;;;;;5.10;3.60;;;;;;;2.90;69.00;100903.34;5059742;28;20491;-61
2022/01/06 04:49:26;;;;;;;5.03;3.13;;;;;;;3.02;69.80;100906.44;5060514;28;20254;-62
2022/01/06 04:51:51;;;;;;;6.37;3.40;;;;;;;2.68;70.92;100920.44;5059640;28;20551;-62
2022/01/06 04:54:16;;;;;;;4.67;3.20;;;;;;;2.61;70.67;100928.69;5059507;28;20236;-61
2022/01/06 04:56:42;;;;;;;4.17;2.90;;;;;;;2.57;71.17;100924.22;5059247;28;20248;-62
2022/01/06 04:59:09;;;;;;;6.20;3.17;;;;;;;2.82;71.01;100930.47;5059593;28;20432;-60
2022/01/06 05:01:35;;;;;;;6.87;3.90;;;;;;;2.74;70.92;100931.81;5059581;28;20244;-61
2022/01/06 05:04:01;;;;;;;5.20;3.50;;;;;;;2.81;71.23;100939.00;5059011;28;20405;-61
2022/01/06 05:06:27;;;;;;;4.30;2.80;;;;;;;3.03;70.26;100941.69;5059454;28;20416;-60
2022/01/06 05:08:52;;;;;;;6.43;3.00;;;;;;;2.95;72.18;100948.22;5059520;28;20783;-60
2022/01/06 05:11:18;;;;;;;10.00;5.13;;;;;;;3.06;70.97;100947.78;5059640;28;20617;-62
2022/01/06 05:13:43;;;;;;;6.80;3.33;;;;;;;3.26;70.92;100954.69;5059179;28;20216;-62
2022/01/06 05:16:08;;;;;;;8.70;3.40;;;;;;;2.97;71.56;100959.44;5059379;28;20562;-61
2022/01/06 05:18:35;;;;;;;6.57;3.83;;;;;;;3.06;70.08;100963.25;5058938;28;20173;-61
2022/01/06 05:21:01;;;;;;;6.10;3.10;;;;;;;2.98;69.88;100970.66;5059265;28;20173;-61
2022/01/06 05:23:26;;;;;;;6.43;3.47;;;;;;;2.75;71.99;100974.75;5059107;28;20518;-62
2022/01/06 05:25:51;;;;;;;5.23;3.17;;;;;;;3.14;70.10;100975.66;5059493;28;20183;-61
2022/01/06 05:28:17;;;;;;;5.30;3.20;;;;;;;2.72;71.25;100983.25;5059033;28;20169;-62
2022/01/06 05:30:42;;;;;;;6.70;3.33;;;;;;;2.66;71.80;100975.22;5059032;28;20216;-61
2022/01/06 05:33:07;;;;;;;8.63;3.40;;;;;;;2.74;72.92;100985.88;5058918;28;20166;-61
2022/01/06 05:35:33;;;;;;;4.93;3.83;;;;;;;2.47;72.28;100983.81;5059776;28;20184;-61
2022/01/06 05:37:58;;;;;;;3.80;3.17;;;;;;;2.92;70.39;100989.25;5058738;28;20181;-62
2022/01/06 05:40:24;;;;;;;9.10;3.70;;;;;;;2.82;71.25;100981.97;5059206;28;20400;-61
2022/01/06 05:42:49;;;;;;;5.23;3.00;;;;;;;2.66;71.43;100986.38;5058539;28;20239;-61
2022/01/06 05:45:16;;;;;;;12.77;3.57;;;;;;;2.66;71.40;100994.13;5058859;28;20170;-61
2022/01/06 05:47:41;;;;;;;8.67;3.00;;;;;;;2.60;71.98;100993.84;5058883;28;20169;-61
2022/01/06 05:50:08;;;;;;;8.03;3.40;;;;;;;2.75;71.66;100997.91;5058311;28;20573;-60
2022/01/06 05:52:33;;;;;;;5.23;2.97;;;;;;;2.70;71.12;100997.72;5058313;28;20414;-61
2022/01/06 05:54:59;;;;;;;3.87;2.97;;;;;;;2.31;72.13;101005.34;5058301;28;20443;-62
2022/01/06 05:57:24;;;;;;;5.10;3.00;;;;;;;2.31;72.18;101000.19;5058470;28;20409;-61
2022/01/06 05:59:49;;;;;;;13.63;4.63;;;;;;;2.16;73.32;100998.66;5058642;28;20200;-60
2022/01/06 06:02:15;;;;;;;6.20;3.47;;;;;;;2.18;73.39;100996.19;5058597;28;20228;-61
2022/01/06 06:04:40;;;;;;;3.97;3.00;;;;;;;2.65;71.11;100999.19;5058299;28;20264;-61
2022/01/06 06:07:05;;;;;;;8.20;5.10;;;;;;;2.44;71.32;101007.69;5058826;28;20205;-61
2022/01/06 06:09:30;;;;;;;6.30;3.47;;;;;;;2.50;72.00;101013.13;5058432;28;20231;-62
2022/01/06 06:11:56;;;;;;;4.83;2.80;;;;;;;2.50;71.67;101015.72;5058306;28;20481;-61
2022/01/06 06:14:21;;;;;;;6.30;3.40;;;;;;;2.51;72.14;101012.31;5058413;28;20189;-62
2022/01/06 06:16:46;;;;;;;6.93;3.43;;;;;;;2.30;73.19;101017.34;5058164;28;20193;-61
2022/01/06 06:19:12;;;;;;;10.13;4.70;;;;;;;2.41;73.49;101019.53;5058159;28;20461;-61
2022/01/06 06:21:37;;;;;;;7.53;3.77;;;;;;;1.98;73.05;101026.94;5058580;28;20257;-60
2022/01/06 06:24:03;;;;;;;4.87;3.80;;;;;;;2.29;72.69;101018.16;5057896;28;20191;-60
2022/01/06 06:26:29;;;;;;;6.13;3.73;;;;;;;2.46;71.86;101021.53;5058057;28;20534;-61
2022/01/06 06:28:54;;;;;;;5.10;3.50;;;;;;;2.58;72.35;101034.06;5058656;28;20427;-62
2022/01/06 06:31:19;;;;;;;20.33;11.70;;;;;;;2.82;71.77;101030.88;5058048;28;20217;-61
2022/01/06 06:33:45;;;;;;;4.77;3.70;;;;;;;3.10;70.29;101033.00;5057871;28;20169;-61
2022/01/06 06:36:10;;;;;;;8.30;3.73;;;;;;;3.13;69.75;101043.44;5060004;28;20557;-61
2022/01/06 06:38:35;;;;;;;11.90;4.47;;;;;;;2.96;70.83;101046.94;5059706;28;20165;-60
2022/01/06 06:41:01;;;;;;;9.60;4.60;;;;;;;2.87;70.33;101047.44;5060178;28;20177;-61
2022/01/06 06:43:26;;;;;;;14.07;4.90;;;;;;;2.98;70.27;101055.63;5059963;28;20181;-62
2022/01/06 06:45:51;;;;;;;9.07;4.53;;;;;;;2.79;71.91;101061.66;5062858;28;20216;-61
2022/01/06 06:48:17;;;;;;;6.60;4.33;;;;;;;2.55;71.00;101062.25;5062887;28;20204;-63
2022/01/06 06:50:42;;;;;;;3.90;3.50;;;;;;;2.45;71.17;101063.50;5062778;28;20225;-61
2022/01/06 06:53:08;;;;;;;4.40;3.70;;;;;;;2.60;71.91;101063.34;5061178;28;20225;-62
2022/01/06 06:55:33;;;;;;;4.07;3.67;;;;;;;2.66;71.35;101073.03;5062134;28;20181;-63
2022/01/06 06:57:59;;;;;;;7.97;3.97;;;;;;;2.36;71.98;101079.38;5062370;28;20180;-64
2022/01/06 07:00:24;;;;;;;6.00;3.70;;;;;;;2.50;71.19;101079.16;5061858;28;20220;-63
2022/01/06 07:02:49;;;;;;;6.57;3.40;;;;;;;2.57;71.10;101078.66;5060780;28;20173;-64
2022/01/06 07:05:17;;;;;;;5.00;3.90;;;;;;;9.33;78.64;101052.13;5062240;28;20231;-61
2022/01/06 07:07:44;;;;;;;4.00;3.23;;;;;;;8.12;61.14;101057.22;5061760;28;20484;-65
2022/01/06 07:10:09;;;;;;;9.00;3.30;;;;;;;4.99;63.51;101066.47;5061623;28;20546;-65
2022/01/06 07:12:39;;;;;;;4.00;3.37;;;;;;;4.02;66.11;101079.91;5061856;28;20473;-63
2022/01/06 07:15:06;;;;;;;5.80;3.60;;;;;;;3.20;67.86;101086.69;5061588;28;20235;-63
2022/01/06 07:17:31;;;;;;;3.77;3.00;;;;;;;3.21;68.90;101095.31;5061620;28;20416;-64
2022/01/06 07:19:57;;;;;;;4.13;3.40;;;;;;;3.10;68.65;101099.09;5061940;28;20783;-64
2022/01/06 07:22:22;;;;;;;4.63;2.97;;;;;;;2.82;70.87;101096.13;5061345;28;20174;-62
2022/01/06 07:24:47;;;;;;;7.03;3.90;;;;;;;2.89;70.64;101101.56;5061437;28;20162;-63
2022/01/06 07:27:13;;;;;;;3.90;3.37;;;;;;;2.83;70.04;101105.63;5061806;28;20169;-64
2022/01/06 07:29:38;;;;;;;5.53;3.50;;;;;;;2.92;70.69;101101.69;5061208;28;20421;-64
2022/01/06 07:32:03;;;;;;;9.43;3.27;;;;;;;2.62;70.79;101109.75;5061135;28;20250;-63
2022/01/06 07:34:29;;;;;;;5.53;3.30;;;;;;;2.62;71.84;101109.75;5061580;28;20280;-62
2022/01/06 07:36:54;;;;;;;8.10;3.83;;;;;;;2.79;71.69;101113.13;5060474;28;20170;-62
2022/01/06 07:39:19;;;;;;;16.30;4.03;;;;;;;2.77;73.24;101119.88;5062042;28;20189;-63
2022/01/06 07:41:45;;;;;;;7.23;3.57;;;;;;;2.49;72.44;101126.28;5061850;28;20247;-62
2022/01/06 07:44:10;;;;;;;6.60;3.40;;;;;;;2.67;71.58;101127.16;5060775;28;20555;-63
2022/01/06 07:46:36;;;;;;;5.70;3.60;;;;;;;2.62;73.49;101138.06;5060527;28;20170;-63
2022/01/06 07:49:01;;;;;;;4.50;3.80;;;;;;;2.10;73.00;101141.53;5061418;28;20176;-63
2022/01/06 07:51:29;;;;;;;5.40;3.40;;;;;;;2.58;72.82;101144.75;5060874;28;20215;-63
2022/01/06 07:53:55;;;;;;;6.90;3.23;;;;;;;2.39;72.17;101145.53;5060440;28;20472;-63
2022/01/06 07:56:21;;;;;;;7.37;4.30;;;;;;;2.31;73.22;101152.00;5061209;28;20408;-64
2022/01/06 07:58:47;;;;;;;3.63;3.30;;;;;;;2.33;72.12;101151.25;5060875;28;20426;-63
2022/01/06 08:01:13;;;;;;;7.10;3.67;;;;;;;2.31;73.35;101152.91;5060663;28;20506;-64
2022/01/06 08:03:39;;;;;;;4.33;3.00;;;;;;;2.31;73.74;101163.19;5061026;28;20423;-63
2022/01/06 08:06:04;;;;;;;3.80;3.40;;;;;;;2.16;73.92;101158.13;5060761;28;20184;-62
2022/01/06 08:08:29;;;;;;;4.30;3.77;;;;;;;2.32;74.25;101158.91;5060487;28;20177;-64
2022/01/06 08:10:55;;;;;;;5.73;3.70;;;;;;;2.61;72.92;101167.19;5061331;28;20551;-61
2022/01/06 08:13:20;;;;;;;5.67;3.50;;;;;;;2.38;72.40;101168.63;5060752;28;20202;-64
2022/01/06 08:15:45;;;;;;;4.93;4.07;;;;;;;2.49;73.32;101168.34;5060503;28;20224;-62
2022/01/06 08:18:11;;;;;;;7.30;3.10;;;;;;;2.51;73.08;101171.88;5061000;28;20535;-63
2022/01/06 08:20:38;;;;;;;6.60;3.50;;;;;;;2.52;72.41;101173.63;5060517;28;20174;-62
2022/01/06 08:23:03;;;;;;;5.43;3.07;;;;;;;2.31;73.95;101176.06;5060375;28;20166;-62
2022/01/06 08:25:29;;;;;;;5.80;3.80;;;;;;;2.46;74.70;101180.19;5060645;28;20400;-62
2022/01/06 08:27:54;;;;;;;4.70;2.93;;;;;;;2.83;72.35;101176.84;5060219;28;20558;-63
2022/01/06 08:30:19;;;;;;;6.60;3.47;;;;;;;2.47;72.71;101179.38;5060282;28;20213;-63
2022/01/06 08:32:44;;;;;;;4.70;3.30;;;;;;;2.56;72.74;101179.84;5060641;28;20253;-63
2022/01/06 08:35:10;;;;;;;4.77;3.70;;;;;;;3.31;71.45;101174.78;5060055;28;20201;-63
2022/01/06 08:37:35;;;;;;;3.40;3.10;;;;;;;3.45;72.05;101187.41;5060202;28;20638;-64
2022/01/06 08:40:01;;;;;;;4.63;3.90;;;;;;;4.01;67.33;101186.50;5060341;28;20161;-63
2022/01/06 08:42:26;;;;;;;4.97;3.63;;;;;;;4.97;65.00;101180.13;5059801;28;20166;-63
2022/01/06 08:44:51;;;;;;;9.37;3.70;;;;;;;8.16;64.40;101172.44;5059820;28;20169;-55
2022/01/06 08:47:16;;;;;;;4.40;3.47;;;;;;;9.08;61.65;101172.13;5059540;28;20239;-53
2022/01/06 08:49:42;;;;;;;9.10;3.50;;;;;;;10.71;58.56;101157.03;5060456;28;20177;-53
2022/01/06 08:52:08;;;;;;;3.43;3.10;;;;;;;13.43;55.22;101158.09;5060244;28;20490;-49
2022/01/06 08:54:33;;;;;;;3.83;3.33;;;;;;;12.33;46.07;101166.91;5059560;28;20603;-51
2022/01/06 08:57:01;;;;;;;4.00;3.00;;;;;;;9.84;48.85;101178.94;5059862;28;20426;-66
2022/01/06 08:59:26;;;;;;;3.97;3.50;;;;;;;8.37;52.64;101180.78;5059867;28;20455;-66
2022/01/06 09:01:52;;;;;;;6.23;4.53;;;;;;;8.45;52.72;101182.72;5059621;28;20419;-65
2022/01/06 09:04:20;;;;;;;21.00;10.37;;;;;;;8.55;52.91;101184.72;5059363;28;20481;-66
2022/01/06 09:06:50;;;;;;;10.33;7.60;;;;;;;8.48;52.65;101182.81;5059175;28;20169;-65
2022/01/06 09:09:15;;;;;;;9.90;6.07;;;;;;;8.54;52.44;101186.47;5058746;28;20541;-66
2022/01/06 09:11:41;;;;;;;9.83;5.30;;;;;;;8.64;52.29;101184.97;5059272;28;20455;-67
2022/01/06 09:14:06;;;;;;;6.60;4.93;;;;;;;11.47;56.38;101172.03;5062637;28;20196;-60
2022/01/06 09:16:32;;;;;;;7.23;3.60;;;;;;;13.38;51.89;101166.81;5076812;28;20434;-60
2022/01/06 09:18:57;;;;;;;7.10;4.17;;;;;;;11.14;50.86;101175.09;5060389;28;20174;-62
2022/01/06 09:21:24;;;;;;;4.67;4.10;;;;;;;12.71;47.88;101168.97;5067424;28;20169;-59
2022/01/06 09:23:50;;;;;;;6.27;4.17;;;;;;;13.62;49.96;101166.91;5079935;28;20251;-61
2022/01/06 09:26:16;;;;;;;5.37;4.13;;;;;;;10.34;47.91;101188.56;5079140;28;20415;-65
2022/01/06 09:28:41;;;;;;;5.47;3.50;;;;;;;9.93;48.91;101191.25;5079308;28;20426;-66
2022/01/06 09:31:07;;;;;;;4.73;3.60;;;;;;;9.41;49.42;101204.06;5062154;28;20201;-65
2022/01/06 09:33:32;;;;;;;4.50;3.50;;;;;;;9.83;49.05;101195.41;5058846;28;20257;-65
2022/01/06 09:35:58;;;;;;;4.73;3.30;;;;;;;9.31;50.50;101205.59;5059136;28;20478;-65
2022/01/06 09:38:23;;;;;;;5.73;3.67;;;;;;;9.06;50.79;101210.22;5058755;28;20165;-66
2022/01/06 09:40:48;;;;;;;6.07;3.70;;;;;;;12.06;56.78;101202.38;5058769;28;20499;-55
2022/01/06 09:43:14;;;;;;;6.07;3.43;;;;;;;11.53;50.91;101211.28;5059548;28;20249;-56
2022/01/06 09:45:42;;;;;;;7.33;3.97;;;;;;;9.98;49.58;101217.41;5059298;28;20205;-72
2022/01/06 09:48:08;;;;;;;5.80;3.40;;;;;;;9.19;50.29;101219.19;5075200;28;20196;-68
2022/01/06 09:50:36;;;;;;;5.23;3.50;;;;;;;9.73;49.05;101217.78;5078983;28;20457;-67
2022/01/06 09:53:02;;;;;;;4.67;3.30;;;;;;;9.08;51.10;101218.09;5078622;28;20411;-69
2022/01/06 09:55:27;;;;;;;4.40;3.77;;;;;;;9.20;50.32;101223.56;5078469;28;20697;-68
2022/01/06 09:57:57;;;;;;;7.27;3.80;;;;;;;9.89;50.43;101218.06;5079061;28;20165;-67
2022/01/06 10:00:24;;;;;;;6.40;4.10;;;;;;;9.73;50.48;101219.50;5078650;28;20165;-69
2022/01/06 10:02:55;;;;;;;7.37;4.07;;;;;;;9.65;50.13;101221.94;5077806;28;20445;-68
2022/01/06 10:05:20;;;;;;;6.30;4.00;;;;;;;9.16;51.57;101226.06;5078552;28;20430;-68
2022/01/06 10:07:45;;;;;;;4.87;3.80;;;;;;;10.01;49.31;101226.16;5078531;28;20681;-69
2022/01/06 10:10:13;;;;;;;6.13;3.63;;;;;;;10.34;48.50;101226.78;5078667;28;20200;-68
2022/01/06 10:12:40;;;;;;;5.53;4.27;;;;;;;10.16;48.02;101227.28;5078129;28;20169;-69
2022/01/06 10:15:23;;;;;;;5.57;3.57;;;;;;;10.52;46.96;101226.25;5078395;28;20836;-69
2022/01/06 10:17:49;;;;;;;12.63;5.37;;;;;;;10.00;48.71;101229.59;5061304;28;20897;-71
2022/01/06 10:20:23;;;;;;;8.30;3.87;;;;;;;10.10;49.12;101225.44;5077907;28;20514;-69
2022/01/06 10:22:50;;;;;;;5.47;4.50;;;;;;;10.15;48.39;101223.81;5057559;28;20215;-68
2022/01/06 10:25:17;;;;;;;5.83;3.80;;;;;;;10.27;47.23;101226.66;5058383;28;20415;-69
2022/01/06 10:27:45;;;;;;;5.13;3.60;;;;;;;10.05;48.41;101225.38;5058159;28;20511;-69
2022/01/06 10:30:12;;;;;;;5.07;3.50;;;;;;;10.92;46.45;101225.19;5058081;28;20448;-68
2022/01/06 10:32:38;;;;;;;5.50;3.40;;;;;;;11.39;44.28;101221.56;5057940;28;20436;-69
2022/01/06 10:35:04;;;;;;;5.13;3.87;;;;;;;10.48;47.17;101227.06;5058767;28;20408;-69
2022/01/06 10:37:34;;;;;;;6.27;3.70;;;;;;;10.18;47.46;101223.00;5058071;28;20839;-68
2022/01/06 10:40:02;;;;;;;4.77;3.63;;;;;;;10.64;46.38;101223.00;5057960;28;20410;-68
2022/01/06 10:42:29;;;;;;;5.57;4.23;;;;;;;10.66;47.36;101227.34;5057335;28;20440;-68
2022/01/06 10:45:05;;;;;;;5.87;4.20;;;;;;;10.71;47.99;101224.84;5057263;28;20427;-69
2022/01/06 10:47:35;;;;;;;4.83;3.57;;;;;;;10.89;45.77;101225.16;5057924;28;20416;-67
2022/01/06 10:50:08;;;;;;;11.87;5.53;;;;;;;10.60;46.93;101228.13;5057293;28;20689;-68
2022/01/06 10:52:33;;;;;;;5.10;4.10;;;;;;;10.99;45.18;101222.66;5057873;28;20814;-68
2022/01/06 10:55:16;;;;;;;4.10;3.60;;;;;;;10.85;45.24;101230.28;5057718;28;20467;-69
2022/01/06 10:57:55;;;;;;;4.73;3.63;;;;;;;11.25;43.81;101233.50;5057945;28;20543;-70
2022/01/06 11:00:22;;;;;;;6.30;3.80;;;;;;;11.11;46.23;101235.94;5057850;28;20422;-68
2022/01/06 11:02:47;;;;;;;4.40;3.50;;;;;;;10.56;46.04;101236.75;5057549;28;20408;-68
2022/01/06 11:05:13;;;;;;;4.73;3.93;;;;;;;10.91;45.35;101238.22;5057717;28;20433;-69
2022/01/06 11:07:38;;;;;;;3.77;3.37;;;;;;;10.15;46.90;101238.56;5056808;28;20287;-70
2022/01/06 11:10:13;;;;;;;6.47;3.80;;;;;;;10.25;47.61;101246.56;5057177;28;20169;-69
2022/01/06 11:12:38;;;;;;;4.80;4.13;;;;;;;10.90;46.21;101241.66;5057652;28;20173;-69
2022/01/06 11:15:04;;;;;;;6.40;4.03;;;;;;;10.69;47.58;101237.84;5057634;28;20724;-70
2022/01/06 11:17:30;;;;;;;4.83;4.37;;;;;;;11.24;45.68;101247.41;5056765;28;20173;-69
2022/01/06 11:19:55;;;;;;;6.00;4.67;;;;;;;10.84;45.43;101247.66;5057073;28;20197;-68
2022/01/06 11:22:24;;;;;;;8.80;6.10;;;;;;;11.51;44.88;101240.84;5074519;28;20222;-68
2022/01/06 11:24:54;;;;;;;6.20;3.87;;;;;;;10.92;45.82;101247.81;5077384;28;20256;-68
2022/01/06 11:27:35;;;;;;;6.73;4.80;;;;;;;10.55;46.56;101244.53;5077584;28;20431;-68
2022/01/06 11:30:14;;;;;;;6.23;4.90;;;;;;;10.78;44.43;101248.44;5078156;28;20464;-68
2022/01/06 11:32:42;;;;;;;6.10;4.03;;;;;;;10.60;45.41;101254.19;5081326;28;20425;-69
2022/01/06 11:35:16;;;;;;;7.60;4.17;;;;;;;11.35;43.64;101255.41;5080811;28;20472;-70